Pagrindinis puslapis
METAR-TAF:

METAR-TAF

Oro uostai :

Andøya, Norvegija

platuma: 69-18N, ilguma: 016-09E, Aukštis: 1 m

Dabartinis oras

Ataskaita buvo paskelbta 30 minutes, ne 10:50 UTC
Vėjas 13 kt iš Pietų
Temperatūra 15°C
Drėgmė 63%
Slėgis 1032 hPa
Matomumas 10 km arba daugiau
nėra debesų žemiau 1500 m ir nėra kamuolinių lietaus debesų

METAR: ENAN 311050Z 18013KT CAVOK 15/08 Q1032

Laikas: 13:20 (11:20 UTC)

Prognozė

Prognozė galioja nuo 31 metu 06 UTC su 01 metu 06 UTC
Vėjas 8 kt iš Pietvakarių
Matomumas 10 km arba daugiau
Mažai debesys ne aukštis 5000 ft

TAF: ENAN 3106/0106 22008KT 9999 FEW050

Orai ataskaitas ir orų prognozės (METAR, TAF).

turimą stotys yra geltonos ir raudonos taškus žemėlapyje.

Perkelti pele per norėdami pamatyti stoties vardą.

Tada spustelėkite, norėdami matyti oro stebėjimo ir prognozės.

Norėdami pakeisti žemėlapį: spustelėkite ant žalios mygtukų su juodo kryžiaus žemyn,; žalią mygtuką su brūkšneliu, jei norite nutolinti; arba žalių rodyklių gretimoms žemėlapius.


METAR-TAF: